createdAt,value
2018-04-13T00:02:26.397Z,15.04
2018-04-13T00:04:55.121Z,15.06
2018-04-13T00:07:23.851Z,15.22
2018-04-13T00:09:52.661Z,15.15
2018-04-13T00:12:21.384Z,15.15
2018-04-13T00:14:50.125Z,15.07
2018-04-13T00:17:18.829Z,15.02
2018-04-13T00:19:47.651Z,15.06
2018-04-13T00:22:16.474Z,14.94
2018-04-13T00:24:45.295Z,15.07
2018-04-13T00:27:14.117Z,15.03
2018-04-13T00:29:43.327Z,15.02
2018-04-13T00:32:12.062Z,14.97
2018-04-13T00:34:40.888Z,14.93
2018-04-13T00:37:09.554Z,14.92
2018-04-13T00:39:38.336Z,14.96
2018-04-13T00:42:07.054Z,14.89
2018-04-13T00:44:35.873Z,14.83
2018-04-13T00:47:04.513Z,14.83
2018-04-13T00:49:33.321Z,14.89
2018-04-13T00:52:02.044Z,14.89
2018-04-13T00:54:30.747Z,14.93
2018-04-13T00:56:59.463Z,14.92
2018-04-13T00:59:28.802Z,14.85
2018-04-13T01:01:57.468Z,14.84
2018-04-13T01:04:26.251Z,14.77
2018-04-13T01:06:54.972Z,14.74
2018-04-13T01:09:23.796Z,14.69
2018-04-13T01:11:52.522Z,14.63
2018-04-13T01:14:21.442Z,14.59
2018-04-13T01:16:50.173Z,14.60
2018-04-13T01:19:19.083Z,14.64
2018-04-13T01:21:47.910Z,14.55
2018-04-13T01:24:16.727Z,14.27
2018-04-13T01:26:45.460Z,14.46
2018-04-13T01:29:14.179Z,14.54
2018-04-13T01:31:43.511Z,14.44
2018-04-13T01:34:12.226Z,14.45
2018-04-13T01:36:40.938Z,14.47
2018-04-13T01:39:09.724Z,14.53
2018-04-13T01:41:38.442Z,14.28
2018-04-13T01:44:07.206Z,14.39
2018-04-13T01:46:36.026Z,14.39
2018-04-13T01:49:04.852Z,14.38
2018-04-13T01:51:33.633Z,14.38
2018-04-13T01:54:02.296Z,14.23
2018-04-13T01:56:31.088Z,14.17
2018-04-13T01:58:59.839Z,14.03
2018-04-13T02:01:28.564Z,14.05
2018-04-13T02:03:57.382Z,14.00
2018-04-13T02:06:25.992Z,13.89
2018-04-13T02:08:55.397Z,13.88
2018-04-13T02:11:24.251Z,13.85
2018-04-13T02:13:53.033Z,13.78
2018-04-13T02:16:21.795Z,13.80
2018-04-13T02:18:50.515Z,13.81
2018-04-13T02:21:19.246Z,13.80
2018-04-13T02:23:47.959Z,13.63
2018-04-13T02:26:16.595Z,13.63
2018-04-13T02:28:45.305Z,13.65
2018-04-13T02:31:13.923Z,13.61
2018-04-13T02:33:42.645Z,13.59
2018-04-13T02:36:11.369Z,13.50
2018-04-13T02:38:40.000Z,13.53
2018-04-13T02:41:08.734Z,13.46
2018-04-13T02:43:37.436Z,13.43
2018-04-13T02:46:06.857Z,13.39
2018-04-13T02:48:35.781Z,13.39
2018-04-13T02:51:04.591Z,13.34
2018-04-13T02:53:33.324Z,13.33
2018-04-13T02:56:02.043Z,13.38
2018-04-13T02:58:30.778Z,13.26
2018-04-13T03:00:59.511Z,13.21
2018-04-13T03:03:28.314Z,13.19
2018-04-13T03:05:57.015Z,13.02
2018-04-13T03:08:25.723Z,12.27
2018-04-13T03:10:54.372Z,13.05
2018-04-13T03:13:23.104Z,13.04
2018-04-13T03:15:52.627Z,13.09
2018-04-13T03:18:21.245Z,13.02
2018-04-13T03:20:49.867Z,13.08
2018-04-13T03:23:18.653Z,13.13
2018-04-13T03:25:47.228Z,13.05
2018-04-13T03:28:15.844Z,13.06
2018-04-13T03:30:44.555Z,13.03
2018-04-13T03:33:13.294Z,12.97
2018-04-13T03:35:41.903Z,12.92
2018-04-13T03:38:10.718Z,12.87
2018-04-13T03:40:39.355Z,12.14
2018-04-13T03:43:08.075Z,12.80
2018-04-13T03:45:37.184Z,12.81
2018-04-13T03:48:06.030Z,12.82
2018-04-13T03:50:34.730Z,12.76
2018-04-13T03:53:03.338Z,12.71
2018-04-13T03:55:31.955Z,12.78
2018-04-13T03:58:00.596Z,12.80
2018-04-13T04:00:29.316Z,12.82
2018-04-13T04:02:58.036Z,12.87
2018-04-13T04:05:26.835Z,12.90
2018-04-13T04:07:55.385Z,12.88
2018-04-13T04:10:24.104Z,13.02
2018-04-13T04:12:52.823Z,13.08
2018-04-13T04:15:21.529Z,13.23
2018-04-13T04:17:50.166Z,13.30
2018-04-13T04:20:31.633Z,13.43
2018-04-13T04:23:12.097Z,13.52
2018-04-13T04:25:52.661Z,13.67
2018-04-13T04:28:21.384Z,13.95
2018-04-13T04:30:50.103Z,14.09
2018-04-13T04:33:18.826Z,14.23
2018-04-13T04:35:47.436Z,14.33
2018-04-13T04:38:16.270Z,14.59
2018-04-13T04:40:44.892Z,14.80
2018-04-13T04:43:13.529Z,14.92
2018-04-13T04:45:42.237Z,15.08
2018-04-13T04:48:10.865Z,15.37
2018-04-13T04:50:39.576Z,15.68
2018-04-13T04:53:08.208Z,16.07
2018-04-13T04:55:36.842Z,16.70
2018-04-13T04:58:05.860Z,17.12
2018-04-13T05:00:34.474Z,17.55
2018-04-13T05:03:03.169Z,17.95
2018-04-13T05:05:31.910Z,18.41
2018-04-13T05:08:00.636Z,18.64
2018-04-13T05:10:29.256Z,18.52
2018-04-13T05:12:58.076Z,18.63
2018-04-13T05:15:26.722Z,19.13
2018-04-13T05:17:55.498Z,19.63
2018-04-13T05:20:24.242Z,19.73
2018-04-13T05:22:52.965Z,20.02
2018-04-13T05:25:21.606Z,20.16
2018-04-13T05:27:50.409Z,20.38
2018-04-13T05:30:19.136Z,20.07
2018-04-13T05:32:47.750Z,20.46
2018-04-13T05:35:17.180Z,21.10
2018-04-13T05:37:46.004Z,20.88
2018-04-13T05:40:14.622Z,21.69
2018-04-13T05:42:43.241Z,21.96
2018-04-13T05:45:11.864Z,22.28
2018-04-13T05:47:40.483Z,22.35
2018-04-13T05:50:09.208Z,22.32
2018-04-13T05:52:37.851Z,22.39
2018-04-13T05:55:06.653Z,22.64
2018-04-13T05:57:35.372Z,22.86
2018-04-13T06:00:04.154Z,22.87
2018-04-13T06:02:32.918Z,23.01
2018-04-13T06:05:01.654Z,23.27
2018-04-13T06:07:30.863Z,23.46
2018-04-13T06:09:59.583Z,23.77
2018-04-13T06:12:28.308Z,24.25
2018-04-13T06:14:57.030Z,24.40
2018-04-13T06:17:25.748Z,24.53
2018-04-13T06:19:54.473Z,24.57
2018-04-13T06:22:23.194Z,24.55
2018-04-13T06:24:51.821Z,24.86
2018-04-13T06:27:20.448Z,24.80
2018-04-13T06:29:49.080Z,26.00
2018-04-13T06:32:17.854Z,25.05
2018-04-13T06:34:46.601Z,25.67
2018-04-13T06:37:15.301Z,25.49
2018-04-13T06:39:44.045Z,25.53
2018-04-13T06:42:12.771Z,26.39
2018-04-13T06:44:42.000Z,26.00
2018-04-13T06:47:10.584Z,26.93
2018-04-13T06:49:39.199Z,25.72
2018-04-13T06:52:07.955Z,26.47
2018-04-13T06:54:36.506Z,26.96
2018-04-13T06:57:05.174Z,27.74
2018-04-13T06:59:34.727Z,27.82
2018-04-13T07:02:03.553Z,27.97
2018-04-13T07:04:32.182Z,28.15
2018-04-13T07:07:01.695Z,28.33
2018-04-13T07:09:30.387Z,28.26
2018-04-13T07:11:59.071Z,28.04
2018-04-13T07:14:27.858Z,27.85
2018-04-13T07:16:56.499Z,27.80
2018-04-13T07:19:25.305Z,27.68
2018-04-13T07:21:53.924Z,28.05
2018-04-13T07:24:22.500Z,28.47
2018-04-13T07:26:51.165Z,29.28
2018-04-13T07:29:19.874Z,28.17
2018-04-13T07:31:48.752Z,28.52
2018-04-13T07:34:17.250Z,28.24
2018-04-13T07:36:45.955Z,28.64
2018-04-13T07:39:15.329Z,28.40
2018-04-13T07:41:44.082Z,29.00
2018-04-13T07:44:12.799Z,29.65
2018-04-13T07:46:42.058Z,28.70
2018-04-13T07:49:10.671Z,30.13
2018-04-13T07:51:39.492Z,29.77
2018-04-13T07:54:08.212Z,30.06
2018-04-13T07:56:37.033Z,29.99
2018-04-13T07:59:05.757Z,30.10
2018-04-13T08:01:34.586Z,29.27
2018-04-13T08:04:03.400Z,29.44
2018-04-13T08:06:32.121Z,29.62
2018-04-13T08:09:00.682Z,28.14
2018-04-13T08:11:29.533Z,28.86
2018-04-13T08:13:58.653Z,28.88
2018-04-13T08:16:27.412Z,30.09
2018-04-13T08:18:56.131Z,30.49
2018-04-13T08:21:24.855Z,30.15
2018-04-13T08:23:53.478Z,30.19
2018-04-13T08:26:22.041Z,29.89
2018-04-13T08:28:50.661Z,29.75
2018-04-13T08:31:19.252Z,29.63
2018-04-13T08:33:47.861Z,29.86
2018-04-13T08:36:16.450Z,29.87
2018-04-13T08:38:45.205Z,29.24
2018-04-13T08:41:13.932Z,29.94
2018-04-13T08:43:42.564Z,28.98
2018-04-13T08:46:11.272Z,30.63
2018-04-13T08:48:40.049Z,29.95
2018-04-13T08:51:08.819Z,29.60
2018-04-13T08:53:37.534Z,29.30
2018-04-13T08:56:06.181Z,29.61
2018-04-13T08:58:34.881Z,30.21
2018-04-13T09:01:03.608Z,29.84
2018-04-13T09:03:32.324Z,29.47
2018-04-13T09:06:01.147Z,29.96
2018-04-13T09:08:29.875Z,29.80
2018-04-13T09:10:58.570Z,30.06
2018-04-13T09:13:28.083Z,29.97
2018-04-13T09:15:56.864Z,30.34
2018-04-13T09:18:25.457Z,30.07
2018-04-13T09:20:54.105Z,29.99
2018-04-13T09:23:22.806Z,30.40
2018-04-13T09:25:51.524Z,30.96
2018-04-13T09:28:20.244Z,30.91
2018-04-13T09:30:49.936Z,30.96
2018-04-13T09:33:18.630Z,31.11
2018-04-13T09:35:47.421Z,31.32
2018-04-13T09:38:16.047Z,30.88
2018-04-13T09:40:44.959Z,30.99
2018-04-13T09:43:13.585Z,31.80
2018-04-13T09:45:42.406Z,31.70
2018-04-13T09:48:11.123Z,31.39
2018-04-13T09:50:39.744Z,31.53
2018-04-13T09:53:08.406Z,31.89
2018-04-13T09:55:37.187Z,32.22
2018-04-13T09:58:05.910Z,31.65
2018-04-13T10:00:34.834Z,32.35
2018-04-13T10:03:03.559Z,32.58
2018-04-13T10:05:32.290Z,32.82
2018-04-13T10:08:01.010Z,32.31
2018-04-13T10:10:30.307Z,32.17
2018-04-13T10:12:58.952Z,32.37
2018-04-13T10:15:27.666Z,31.94
2018-04-13T10:17:57.090Z,31.61
2018-04-13T10:20:25.657Z,31.98
2018-04-13T10:22:54.229Z,32.15
2018-04-13T10:25:22.855Z,32.59
2018-04-13T10:27:51.488Z,32.98
2018-04-13T10:30:20.200Z,32.77
2018-04-13T10:32:48.841Z,32.11
2018-04-13T10:35:17.541Z,31.66
2018-04-13T10:37:46.164Z,32.95
2018-04-13T10:40:14.859Z,32.85
2018-04-13T10:42:43.519Z,33.33
2018-04-13T10:45:12.160Z,32.32
2018-04-13T10:47:41.457Z,32.47
2018-04-13T10:50:10.174Z,31.89
2018-04-13T10:52:38.795Z,33.43
2018-04-13T10:55:07.720Z,33.42
2018-04-13T10:57:36.347Z,33.27
2018-04-13T11:00:04.974Z,33.25
2018-04-13T11:02:33.682Z,32.69
2018-04-13T11:05:02.405Z,32.84
2018-04-13T11:07:31.199Z,32.26
2018-04-13T11:09:59.950Z,33.12
2018-04-13T11:12:28.661Z,32.29
2018-04-13T11:14:57.302Z,32.66
2018-04-13T11:17:26.015Z,31.47
2018-04-13T11:19:54.619Z,31.24
2018-04-13T11:22:23.360Z,31.68
2018-04-13T11:24:55.518Z,31.97
2018-04-13T11:27:25.108Z,31.60
2018-04-13T11:29:53.838Z,30.92
2018-04-13T11:32:22.563Z,31.48
2018-04-13T11:34:51.280Z,30.41
2018-04-13T11:37:19.896Z,29.38
2018-04-13T11:39:50.840Z,29.14
2018-04-13T11:42:19.407Z,28.82
2018-04-13T11:44:48.174Z,28.31
2018-04-13T11:47:17.353Z,28.36
2018-04-13T11:49:46.121Z,27.76
2018-04-13T11:52:14.845Z,28.05
2018-04-13T11:54:43.470Z,28.41
2018-04-13T11:57:14.722Z,28.31
2018-04-13T11:59:43.480Z,28.25
2018-04-13T12:02:13.045Z,28.07
2018-04-13T12:04:41.685Z,27.84
2018-04-13T12:07:10.285Z,28.39
2018-04-13T12:09:38.946Z,27.94
2018-04-13T12:12:07.547Z,28.17
2018-04-13T12:14:36.255Z,28.38
2018-04-13T12:17:04.879Z,28.46
2018-04-13T12:19:33.569Z,28.77
2018-04-13T12:22:02.315Z,28.41
2018-04-13T12:24:31.039Z,28.21
2018-04-13T12:26:59.862Z,27.86
2018-04-13T12:29:28.585Z,27.82
2018-04-13T12:31:57.404Z,27.92
2018-04-13T12:34:26.826Z,27.78
2018-04-13T12:36:55.657Z,27.63
2018-04-13T12:39:24.384Z,27.88
2018-04-13T12:41:53.796Z,28.27
2018-04-13T12:44:22.821Z,28.20
2018-04-13T12:46:51.642Z,27.95
2018-04-13T12:49:20.285Z,28.28
2018-04-13T12:51:48.987Z,28.30
2018-04-13T12:54:17.614Z,28.03
2018-04-13T12:56:46.496Z,28.21
2018-04-13T12:59:15.057Z,28.43
2018-04-13T13:01:43.678Z,28.20
2018-04-13T13:04:12.375Z,27.81
2018-04-13T13:06:41.428Z,27.48
2018-04-13T13:09:10.142Z,27.27
2018-04-13T13:11:38.829Z,27.14
2018-04-13T13:14:07.689Z,27.33
2018-04-13T13:16:36.564Z,27.31
2018-04-13T13:19:05.176Z,27.44
2018-04-13T13:21:33.950Z,27.73
2018-04-13T13:24:02.673Z,27.71
2018-04-13T13:26:31.495Z,27.95
2018-04-13T13:29:00.217Z,27.72
2018-04-13T13:31:28.941Z,27.73
2018-04-13T13:33:58.065Z,27.73
2018-04-13T13:36:26.783Z,27.81
2018-04-13T13:38:55.410Z,27.70
2018-04-13T13:41:24.129Z,27.62
2018-04-13T13:43:52.859Z,27.28
2018-04-13T13:46:21.608Z,27.15
2018-04-13T13:48:50.301Z,27.32
2018-04-13T13:51:18.999Z,27.50
2018-04-13T13:53:47.736Z,27.63
2018-04-13T13:56:16.378Z,27.61
2018-04-13T13:58:44.992Z,27.67
2018-04-13T14:01:13.806Z,27.67
2018-04-13T14:03:42.461Z,27.93
2018-04-13T14:06:11.125Z,28.16
2018-04-13T14:08:39.981Z,28.27
2018-04-13T14:11:08.580Z,28.30
2018-04-13T14:13:37.317Z,28.47
2018-04-13T14:16:06.031Z,28.57
2018-04-13T14:18:34.663Z,28.87
2018-04-13T14:21:03.375Z,28.85
2018-04-13T14:23:32.096Z,28.96
2018-04-13T14:26:00.718Z,28.97
2018-04-13T14:28:29.459Z,28.72
2018-04-13T14:30:58.270Z,28.31
2018-04-13T14:33:26.988Z,28.26
2018-04-13T14:35:55.710Z,28.24
2018-04-13T14:38:24.956Z,28.18
2018-04-13T14:40:53.716Z,28.03
2018-04-13T14:43:22.812Z,27.99
2018-04-13T14:45:51.417Z,27.96
2018-04-13T14:48:20.088Z,28.05
2018-04-13T14:50:48.844Z,27.88
2018-04-13T14:53:17.547Z,27.65
2018-04-13T14:55:46.139Z,27.85
2018-04-13T14:58:14.714Z,27.74
2018-04-13T15:00:43.334Z,27.65
2018-04-13T15:03:11.868Z,27.88
2018-04-13T15:05:40.571Z,27.67
2018-04-13T15:08:09.096Z,27.81
2018-04-13T15:10:37.686Z,27.91
2018-04-13T15:13:06.296Z,27.84
2018-04-13T15:15:34.845Z,27.61
2018-04-13T15:18:03.405Z,27.20
2018-04-13T15:20:32.399Z,26.61
2018-04-13T15:23:00.923Z,26.77
2018-04-13T15:25:29.492Z,26.82
2018-04-13T15:27:58.047Z,26.80
2018-04-13T15:30:26.654Z,26.62
2018-04-13T15:32:55.244Z,26.67
2018-04-13T15:35:23.784Z,26.75
2018-04-13T15:37:52.264Z,26.82
2018-04-13T15:40:20.839Z,26.88
2018-04-13T15:42:49.345Z,26.81
2018-04-13T15:45:17.971Z,26.64
2018-04-13T15:47:46.530Z,26.53
2018-04-13T15:50:15.259Z,26.56
2018-04-13T15:52:44.440Z,26.62
2018-04-13T15:55:12.981Z,26.71
2018-04-13T15:57:41.530Z,26.55
2018-04-13T16:00:10.085Z,26.30
2018-04-13T16:02:38.612Z,26.13
2018-04-13T16:05:07.109Z,26.13
2018-04-13T16:07:35.623Z,26.07
2018-04-13T16:10:04.176Z,26.10
2018-04-13T16:12:32.665Z,26.16
2018-04-13T16:15:01.189Z,26.08
2018-04-13T16:17:29.877Z,25.96
2018-04-13T16:19:58.451Z,25.84
2018-04-13T16:22:27.039Z,25.91
2018-04-13T16:24:55.565Z,25.74
2018-04-13T16:27:24.060Z,25.68
2018-04-13T16:29:53.813Z,25.68
2018-04-13T16:32:22.458Z,25.55
2018-04-13T16:34:51.147Z,25.49
2018-04-13T16:37:19.838Z,25.34
2018-04-13T16:39:48.596Z,25.22
2018-04-13T16:42:17.111Z,25.13
2018-04-13T16:44:45.765Z,25.06
2018-04-13T16:47:14.277Z,25.09
2018-04-13T16:49:42.830Z,25.03
2018-04-13T16:52:11.405Z,25.10
2018-04-13T16:54:40.021Z,25.09
2018-04-13T16:57:09.357Z,25.09
2018-04-13T16:59:37.931Z,24.99
2018-04-13T17:02:06.483Z,24.86
2018-04-13T17:04:35.030Z,24.64
2018-04-13T17:07:03.627Z,24.66
2018-04-13T17:09:32.194Z,24.44
2018-04-13T17:12:00.800Z,24.25
2018-04-13T17:14:29.346Z,24.17
2018-04-13T17:16:57.910Z,24.13
2018-04-13T17:19:26.452Z,23.99
2018-04-13T17:21:54.928Z,23.83
2018-04-13T17:24:23.582Z,23.76
2018-04-13T17:26:52.096Z,23.56
2018-04-13T17:29:21.374Z,23.41
2018-04-13T17:31:49.920Z,23.18
2018-04-13T17:34:18.569Z,23.09
2018-04-13T17:36:47.927Z,22.95
2018-04-13T17:39:16.587Z,22.94
2018-04-13T17:41:45.233Z,22.90
2018-04-13T17:44:13.720Z,22.73
2018-04-13T17:46:42.374Z,22.50
2018-04-13T17:49:10.941Z,22.48
2018-04-13T17:51:39.621Z,22.27
2018-04-13T17:54:08.237Z,22.18
2018-04-13T17:56:36.930Z,22.04
2018-04-13T17:59:05.482Z,21.99
2018-04-13T18:01:34.051Z,21.88
2018-04-13T18:04:03.607Z,21.78
2018-04-13T18:06:32.868Z,21.67
2018-04-13T18:09:01.400Z,21.70
2018-04-13T18:11:29.993Z,21.58
2018-04-13T18:13:58.481Z,21.46
2018-04-13T18:16:27.100Z,21.38
2018-04-13T18:18:55.758Z,21.41
2018-04-13T18:21:24.299Z,21.40
2018-04-13T18:23:52.905Z,21.44
2018-04-13T18:26:21.473Z,21.43
2018-04-13T18:28:49.940Z,21.43
2018-04-13T18:31:18.522Z,21.34
2018-04-13T18:33:47.096Z,21.22
2018-04-13T18:36:15.706Z,21.12
2018-04-13T18:38:44.212Z,21.04
2018-04-13T18:41:12.852Z,20.99
2018-04-13T18:43:42.050Z,20.87
2018-04-13T18:46:10.630Z,20.70
2018-04-13T18:48:39.219Z,20.57
2018-04-13T18:51:07.738Z,20.54
2018-04-13T18:53:36.760Z,20.51
2018-04-13T18:56:05.300Z,20.48
2018-04-13T18:58:33.823Z,20.45
2018-04-13T19:01:02.327Z,20.41
2018-04-13T19:03:30.906Z,20.32
2018-04-13T19:05:59.405Z,20.28
2018-04-13T19:08:27.997Z,20.28
2018-04-13T19:10:56.580Z,20.28
2018-04-13T19:13:25.391Z,20.14
2018-04-13T19:15:54.267Z,20.00
2018-04-13T19:18:22.793Z,19.96
2018-04-13T19:20:51.338Z,19.90
2018-04-13T19:23:20.787Z,19.76
2018-04-13T19:25:49.275Z,19.69
2018-04-13T19:28:17.802Z,19.69
2018-04-13T19:30:46.362Z,19.60
2018-04-13T19:33:14.972Z,19.55
2018-04-13T19:35:43.611Z,19.50
2018-04-13T19:38:12.137Z,19.42
2018-04-13T19:40:40.871Z,19.30
2018-04-13T19:43:09.497Z,19.33
2018-04-13T19:45:38.022Z,19.27
2018-04-13T19:48:07.365Z,19.23
2018-04-13T19:50:35.922Z,19.27
2018-04-13T19:53:04.453Z,19.23
2018-04-13T19:55:33.004Z,19.12
2018-04-13T19:58:01.554Z,19.02
2018-04-13T20:00:30.125Z,18.76
2018-04-13T20:02:58.769Z,18.86
2018-04-13T20:05:27.293Z,18.90
2018-04-13T20:07:55.916Z,18.87
2018-04-13T20:10:24.448Z,18.82
2018-04-13T20:12:53.021Z,18.78
2018-04-13T20:15:28.505Z,18.68
2018-04-13T20:17:57.068Z,18.58
2018-04-13T20:20:25.719Z,18.56
2018-04-13T20:22:54.458Z,18.50
2018-04-13T20:25:23.490Z,17.82
2018-04-13T20:27:52.098Z,18.32
2018-04-13T20:30:22.429Z,18.36
2018-04-13T20:32:51.090Z,18.32
2018-04-13T20:35:19.672Z,18.26
2018-04-13T20:37:48.295Z,18.21
2018-04-13T20:40:16.800Z,18.20
2018-04-13T20:42:45.543Z,18.12
2018-04-13T20:45:14.037Z,18.05
2018-04-13T20:47:42.555Z,18.07
2018-04-13T20:50:11.270Z,17.96
2018-04-13T20:52:39.828Z,17.87
2018-04-13T20:55:08.450Z,17.86
2018-04-13T20:57:37.777Z,17.79
2018-04-13T21:00:06.489Z,17.68
2018-04-13T21:02:35.034Z,17.72
2018-04-13T21:05:03.640Z,17.69
2018-04-13T21:07:32.114Z,17.57
2018-04-13T21:10:00.649Z,17.54
2018-04-13T21:12:29.189Z,17.48
2018-04-13T21:14:57.949Z,17.44
2018-04-13T21:17:26.477Z,17.40
2018-04-13T21:19:57.020Z,17.40
2018-04-13T21:22:25.906Z,17.33
2018-04-13T21:24:54.447Z,17.33
2018-04-13T21:27:23.838Z,17.27
2018-04-13T21:29:52.391Z,17.20
2018-04-13T21:32:20.875Z,17.18
2018-04-13T21:34:49.592Z,17.08
2018-04-13T21:37:18.748Z,17.10
2018-04-13T21:39:47.352Z,17.05
2018-04-13T21:42:15.950Z,17.04
2018-04-13T21:44:44.501Z,17.06
2018-04-13T21:47:13.099Z,17.06
2018-04-13T21:49:41.588Z,17.03
2018-04-13T21:52:10.261Z,17.00
2018-04-13T21:54:38.779Z,17.03
2018-04-13T21:57:07.350Z,16.97
2018-04-13T21:59:35.879Z,16.93
2018-04-13T22:02:04.400Z,16.18
2018-04-13T22:04:32.940Z,16.99
2018-04-13T22:07:01.584Z,16.99
2018-04-13T22:09:30.301Z,16.98
2018-04-13T22:11:58.798Z,16.92
2018-04-13T22:14:39.218Z,16.90
2018-04-13T22:17:08.445Z,16.62
2018-04-13T22:19:36.966Z,16.34
2018-04-13T22:22:05.518Z,16.47
2018-04-13T22:24:34.077Z,16.25
2018-04-13T22:27:02.709Z,16.27
2018-04-13T22:29:31.218Z,16.18
2018-04-13T22:31:59.721Z,16.06
2018-04-13T22:34:28.895Z,16.27
2018-04-13T22:36:57.488Z,16.31
2018-04-13T22:39:25.972Z,16.36
2018-04-13T22:41:54.482Z,16.31
2018-04-13T22:44:23.050Z,16.29
2018-04-13T22:46:51.612Z,16.29
2018-04-13T22:49:20.875Z,16.28
2018-04-13T22:51:49.523Z,16.21
2018-04-13T22:54:18.241Z,16.21
2018-04-13T22:56:46.797Z,16.22
2018-04-13T22:59:15.327Z,16.26
2018-04-13T23:01:43.912Z,16.28
2018-04-13T23:04:12.439Z,16.20
2018-04-13T23:06:41.042Z,16.18
2018-04-13T23:09:09.640Z,16.08
2018-04-13T23:11:38.304Z,15.94
2018-04-13T23:14:07.008Z,15.90
2018-04-13T23:16:35.670Z,15.74
2018-04-13T23:19:04.751Z,15.62
2018-04-13T23:21:33.349Z,15.60
2018-04-13T23:24:01.905Z,15.56
2018-04-13T23:26:30.496Z,15.60
2018-04-13T23:28:59.136Z,15.57
2018-04-13T23:31:27.701Z,15.48
2018-04-13T23:33:56.271Z,15.46
2018-04-13T23:36:24.912Z,15.47
2018-04-13T23:38:53.488Z,15.43
2018-04-13T23:41:22.142Z,15.39
2018-04-13T23:43:50.757Z,15.48
2018-04-13T23:46:19.386Z,15.57
2018-04-13T23:48:47.924Z,15.57
2018-04-13T23:51:16.508Z,15.54
2018-04-13T23:53:46.703Z,15.50
2018-04-13T23:56:15.270Z,15.44
2018-04-13T23:58:43.854Z,15.24
